createdAt,value
2022-11-22T00:00:25.249Z,6.30
2022-11-22T00:02:52.072Z,6.30
2022-11-22T00:05:18.883Z,6.20
2022-11-22T00:07:45.934Z,6.20
2022-11-22T00:10:14.023Z,6.20
2022-11-22T00:12:41.058Z,6.20
2022-11-22T00:15:08.331Z,6.20
2022-11-22T00:17:35.426Z,6.20
2022-11-22T00:20:02.301Z,6.10
2022-11-22T00:22:29.784Z,6.10
2022-11-22T00:24:56.563Z,6.10
2022-11-22T00:27:23.686Z,6.10
2022-11-22T00:29:50.533Z,6.10
2022-11-22T00:32:17.304Z,6.10
2022-11-22T00:34:44.044Z,6.10
2022-11-22T00:37:10.899Z,6.00
2022-11-22T00:39:37.616Z,6.00
2022-11-22T00:42:04.573Z,6.00
2022-11-22T00:44:31.312Z,6.00
2022-11-22T00:46:58.161Z,6.00
2022-11-22T00:49:24.928Z,5.90
2022-11-22T00:51:51.751Z,5.90
2022-11-22T00:54:18.513Z,5.90
2022-11-22T00:56:45.245Z,5.80
2022-11-22T00:59:11.975Z,5.80
2022-11-22T01:01:38.765Z,5.80
2022-11-22T01:04:05.572Z,5.80
2022-11-22T01:06:32.304Z,5.80
2022-11-22T01:08:59.129Z,5.70
2022-11-22T01:11:25.894Z,5.70
2022-11-22T01:13:52.962Z,5.70
2022-11-22T01:16:19.928Z,5.70
2022-11-22T01:18:47.001Z,5.70
2022-11-22T01:21:13.909Z,5.60
2022-11-22T01:23:40.742Z,5.60
2022-11-22T01:26:09.035Z,5.60
2022-11-22T01:28:36.744Z,5.60
2022-11-22T01:31:04.966Z,5.60
2022-11-22T01:33:31.828Z,5.60
2022-11-22T01:35:58.677Z,5.60
2022-11-22T01:38:25.625Z,5.60
2022-11-22T01:40:53.236Z,5.50
2022-11-22T01:43:27.596Z,5.50
2022-11-22T01:45:56.485Z,5.50
2022-11-22T01:48:28.776Z,5.50
2022-11-22T01:51:00.107Z,5.40
2022-11-22T01:53:30.696Z,5.40
2022-11-22T01:55:58.917Z,5.40
2022-11-22T01:58:27.629Z,5.40
2022-11-22T02:00:54.680Z,5.30
2022-11-22T02:03:22.063Z,5.30
2022-11-22T02:05:49.900Z,5.30
2022-11-22T02:08:25.705Z,5.30
2022-11-22T02:10:53.612Z,5.20
2022-11-22T02:13:22.341Z,5.20
2022-11-22T02:15:50.320Z,5.20
2022-11-22T02:18:17.272Z,5.20
2022-11-22T02:20:44.652Z,5.20
2022-11-22T02:23:23.075Z,5.10
2022-11-22T02:25:52.899Z,5.10
2022-11-22T02:28:19.666Z,5.10
2022-11-22T02:30:46.495Z,5.00
2022-11-22T02:33:13.288Z,5.10
2022-11-22T02:35:40.835Z,5.00
2022-11-22T02:38:21.627Z,5.00
2022-11-22T02:41:04.686Z,5.00
2022-11-22T02:43:34.127Z,4.90
2022-11-22T02:46:08.247Z,4.90
2022-11-22T02:48:35.034Z,4.90
2022-11-22T02:51:01.768Z,4.90
2022-11-22T02:53:31.217Z,4.90
2022-11-22T02:55:58.174Z,4.80
2022-11-22T02:58:24.962Z,4.80
2022-11-22T03:00:51.978Z,4.80
2022-11-22T03:03:18.715Z,4.80
2022-11-22T03:05:45.435Z,4.80
2022-11-22T03:08:12.366Z,4.80
2022-11-22T03:10:39.143Z,4.70
2022-11-22T03:13:05.894Z,4.70
2022-11-22T03:15:32.671Z,4.70
2022-11-22T03:18:00.636Z,4.70
2022-11-22T03:20:28.324Z,4.70
2022-11-22T03:22:55.434Z,4.70
2022-11-22T03:25:22.345Z,4.60
2022-11-22T03:27:49.436Z,4.60
2022-11-22T03:30:16.287Z,4.60
2022-11-22T03:32:43.075Z,4.60
2022-11-22T03:35:10.528Z,4.60
2022-11-22T03:37:37.321Z,4.60
2022-11-22T03:40:05.235Z,4.50
2022-11-22T03:42:31.997Z,4.50
2022-11-22T03:44:58.797Z,4.50
2022-11-22T03:47:25.549Z,4.50
2022-11-22T03:49:52.310Z,4.50
2022-11-22T03:52:19.017Z,4.50
2022-11-22T03:54:45.766Z,4.40
2022-11-22T03:57:12.505Z,4.40
2022-11-22T03:59:39.242Z,4.40
2022-11-22T04:02:06.174Z,4.40
2022-11-22T04:04:32.925Z,4.40
2022-11-22T04:06:59.723Z,4.40
2022-11-22T04:09:26.527Z,4.40
2022-11-22T04:11:53.297Z,4.40
2022-11-22T04:14:38.983Z,4.40
2022-11-22T04:17:05.965Z,4.40
2022-11-22T04:19:32.910Z,4.40
2022-11-22T04:21:59.729Z,4.40
2022-11-22T04:24:45.336Z,4.40
2022-11-22T04:27:12.086Z,4.50
2022-11-22T04:29:38.859Z,4.40
2022-11-22T04:32:24.004Z,4.40
2022-11-22T04:34:50.718Z,4.50
2022-11-22T04:37:17.472Z,4.50
2022-11-22T04:39:44.228Z,4.50
2022-11-22T04:42:29.894Z,4.50
2022-11-22T04:44:56.776Z,4.50
2022-11-22T04:47:45.052Z,4.50
2022-11-22T04:50:34.327Z,4.50
2022-11-22T04:53:01.058Z,4.50
2022-11-22T04:55:27.814Z,4.50
2022-11-22T04:57:59.309Z,4.50
2022-11-22T05:00:28.739Z,4.50
2022-11-22T05:02:56.561Z,4.40
2022-11-22T05:05:24.318Z,4.40
2022-11-22T05:07:51.155Z,4.40
2022-11-22T05:10:22.803Z,4.40
2022-11-22T05:12:52.740Z,4.40
2022-11-22T05:15:19.510Z,4.40
2022-11-22T05:17:46.278Z,4.40
2022-11-22T05:20:13.001Z,4.40
2022-11-22T05:22:58.456Z,4.40
2022-11-22T05:25:25.852Z,4.40
2022-11-22T05:27:54.627Z,4.40
2022-11-22T05:30:21.364Z,4.40
2022-11-22T05:32:48.098Z,4.40
2022-11-22T05:35:15.009Z,4.50
2022-11-22T05:37:41.767Z,4.40
2022-11-22T05:40:09.314Z,4.50
2022-11-22T05:42:36.073Z,4.40
2022-11-22T05:45:02.882Z,4.50
2022-11-22T05:47:33.962Z,4.50
2022-11-22T05:50:00.706Z,4.50
2022-11-22T05:52:27.440Z,4.50
2022-11-22T05:54:54.233Z,4.50
2022-11-22T05:57:21.095Z,4.60
2022-11-22T05:59:47.840Z,4.50
2022-11-22T06:02:14.744Z,4.50
2022-11-22T06:04:41.538Z,4.60
2022-11-22T06:07:10.287Z,4.50
2022-11-22T06:09:37.357Z,4.50
2022-11-22T06:12:04.330Z,4.60
2022-11-22T06:14:31.096Z,4.60
2022-11-22T06:16:57.927Z,4.60
2022-11-22T06:19:24.725Z,4.60
2022-11-22T06:21:51.452Z,4.60
2022-11-22T06:24:18.545Z,4.60
2022-11-22T06:26:45.367Z,4.60
2022-11-22T06:29:12.322Z,4.60
2022-11-22T06:31:39.127Z,4.60
2022-11-22T06:34:05.956Z,4.60
2022-11-22T06:36:34.532Z,4.60
2022-11-22T06:39:03.629Z,4.60
2022-11-22T06:41:36.823Z,4.60
2022-11-22T06:44:06.078Z,4.60
2022-11-22T06:46:33.374Z,4.60
2022-11-22T06:49:00.291Z,4.60
2022-11-22T06:51:28.978Z,4.70
2022-11-22T06:53:56.945Z,4.70
2022-11-22T06:56:29.305Z,4.70
2022-11-22T06:58:56.198Z,4.70
2022-11-22T07:01:24.198Z,4.70
2022-11-22T07:03:51.487Z,4.70
2022-11-22T07:06:19.472Z,4.70
2022-11-22T07:08:46.832Z,4.70
2022-11-22T07:11:19.461Z,4.70
2022-11-22T07:13:47.136Z,4.70
2022-11-22T07:16:16.754Z,4.70
2022-11-22T07:18:43.561Z,4.80
2022-11-22T07:21:13.753Z,4.80
2022-11-22T07:23:42.109Z,4.80
2022-11-22T07:26:09.589Z,4.80
2022-11-22T07:28:37.243Z,4.80
2022-11-22T07:31:06.225Z,4.80
2022-11-22T07:33:33.909Z,4.80
2022-11-22T07:36:10.782Z,4.80
2022-11-22T07:38:38.300Z,4.80
2022-11-22T07:41:05.916Z,4.90
2022-11-22T07:43:33.029Z,4.80
2022-11-22T07:46:01.382Z,4.90
2022-11-22T07:48:28.312Z,4.90
2022-11-22T07:50:55.257Z,4.80
2022-11-22T07:53:22.003Z,4.90
2022-11-22T07:55:48.804Z,4.90
2022-11-22T07:58:15.606Z,4.90
2022-11-22T08:00:42.410Z,4.90
2022-11-22T08:03:09.219Z,4.90
2022-11-22T08:05:36.035Z,4.90
2022-11-22T08:08:03.004Z,5.00
2022-11-22T08:10:29.799Z,4.90
2022-11-22T08:13:00.137Z,5.00
2022-11-22T08:15:27.044Z,5.00
2022-11-22T08:17:54.280Z,5.00
2022-11-22T08:20:21.103Z,5.00
2022-11-22T08:22:47.915Z,5.10
2022-11-22T08:25:14.730Z,5.10
2022-11-22T08:27:42.976Z,5.10
2022-11-22T08:30:11.117Z,5.10
2022-11-22T08:32:38.176Z,5.10
2022-11-22T08:35:05.310Z,5.10
2022-11-22T08:37:32.239Z,5.20
2022-11-22T08:39:59.023Z,5.20
2022-11-22T08:42:25.858Z,5.20
2022-11-22T08:44:52.649Z,5.20
2022-11-22T08:47:19.480Z,5.20
2022-11-22T08:49:46.258Z,5.30
2022-11-22T08:52:13.387Z,5.30
2022-11-22T08:54:40.313Z,5.30
2022-11-22T08:57:07.121Z,5.30
2022-11-22T08:59:34.157Z,5.30
2022-11-22T09:02:01.225Z,5.30
2022-11-22T09:04:28.168Z,5.40
2022-11-22T09:09:41.694Z,5.40
2022-11-22T09:12:08.723Z,5.40
2022-11-22T09:14:35.498Z,5.40
2022-11-22T09:17:02.264Z,5.50
2022-11-22T09:19:29.453Z,5.50
2022-11-22T09:21:56.512Z,5.60
2022-11-22T09:24:23.322Z,5.60
2022-11-22T09:26:50.180Z,5.60
2022-11-22T09:29:16.933Z,5.60
2022-11-22T09:31:43.839Z,5.60
2022-11-22T09:34:10.644Z,5.60
2022-11-22T09:36:37.400Z,5.70
2022-11-22T09:39:04.408Z,5.70
2022-11-22T09:41:56.638Z,5.80
2022-11-22T09:45:05.397Z,5.80
2022-11-22T09:47:40.554Z,5.80
2022-11-22T09:50:40.987Z,5.90
2022-11-22T09:53:10.420Z,5.90
2022-11-22T09:55:42.295Z,6.00
2022-11-22T09:58:12.387Z,6.00
2022-11-22T10:00:41.443Z,6.00
2022-11-22T10:03:08.227Z,6.00
2022-11-22T10:05:44.153Z,6.10
2022-11-22T10:08:33.359Z,6.10
2022-11-22T10:11:01.630Z,6.20
2022-11-22T10:13:36.142Z,6.20
2022-11-22T10:16:14.950Z,6.20
2022-11-22T10:18:46.632Z,6.20
2022-11-22T10:21:14.347Z,6.20
2022-11-22T10:23:42.516Z,6.20
2022-11-22T10:26:27.310Z,6.30
2022-11-22T10:29:13.173Z,6.30
2022-11-22T10:32:19.558Z,6.30
2022-11-22T10:35:18.526Z,6.30
2022-11-22T10:38:19.350Z,6.40
2022-11-22T10:40:58.245Z,6.40
2022-11-22T10:43:48.585Z,6.50
2022-11-22T10:46:27.836Z,6.50
2022-11-22T10:49:15.214Z,6.50
2022-11-22T10:51:53.087Z,6.60
2022-11-22T10:54:34.960Z,6.50
2022-11-22T10:57:11.721Z,6.60
2022-11-22T11:00:11.788Z,6.60
2022-11-22T11:02:53.809Z,6.60
2022-11-22T11:05:25.603Z,6.60
2022-11-22T11:07:56.787Z,6.60
2022-11-22T11:10:36.371Z,6.60
2022-11-22T11:13:08.034Z,6.60
2022-11-22T11:15:40.125Z,6.60
2022-11-22T11:18:19.630Z,6.60
2022-11-22T11:20:47.919Z,6.70
2022-11-22T11:23:16.290Z,6.70
2022-11-22T11:25:45.275Z,6.70
2022-11-22T11:28:19.472Z,6.70
2022-11-22T11:30:48.211Z,6.70
2022-11-22T11:33:27.297Z,6.70
2022-11-22T11:36:22.016Z,6.70
2022-11-22T11:38:54.829Z,6.80
2022-11-22T11:41:38.811Z,6.80
2022-11-22T11:44:27.216Z,6.80
2022-11-22T11:46:54.160Z,6.90
2022-11-22T11:49:25.207Z,6.80
2022-11-22T11:52:09.294Z,6.90
2022-11-22T11:54:39.093Z,6.90
2022-11-22T11:57:09.443Z,6.90
2022-11-22T11:59:38.961Z,7.00
2022-11-22T12:02:15.506Z,6.90
2022-11-22T12:04:52.286Z,6.90
2022-11-22T12:07:23.531Z,7.00
2022-11-22T12:09:52.306Z,7.00
2022-11-22T12:12:24.693Z,7.00
2022-11-22T12:15:12.730Z,7.10
2022-11-22T12:18:00.617Z,7.10
2022-11-22T12:20:41.447Z,7.10
2022-11-22T12:23:17.649Z,7.10
2022-11-22T12:25:45.614Z,7.20
2022-11-22T12:28:18.550Z,7.20
2022-11-22T12:30:48.270Z,7.20
2022-11-22T12:33:19.561Z,7.20
2022-11-22T12:35:46.787Z,7.30
2022-11-22T12:38:33.760Z,7.30
2022-11-22T12:41:03.459Z,7.30
2022-11-22T12:43:37.301Z,7.40
2022-11-22T12:46:14.153Z,7.40
2022-11-22T12:48:56.191Z,7.40
2022-11-22T12:51:47.962Z,7.50
2022-11-22T12:54:18.527Z,7.50
2022-11-22T12:56:59.979Z,7.50
2022-11-22T12:59:59.119Z,7.60
2022-11-22T13:02:30.925Z,7.60
2022-11-22T13:05:02.430Z,7.60
2022-11-22T13:07:35.290Z,7.70
2022-11-22T13:10:07.597Z,7.70
2022-11-22T13:12:39.059Z,7.70
2022-11-22T13:15:06.757Z,7.70
2022-11-22T13:17:35.322Z,7.80
2022-11-22T13:20:23.694Z,7.80
2022-11-22T13:22:58.142Z,7.70
2022-11-22T13:25:33.323Z,7.80
2022-11-22T13:28:01.757Z,7.80
2022-11-22T13:30:30.101Z,7.80
2022-11-22T13:32:58.656Z,7.90
2022-11-22T13:35:32.195Z,7.90
2022-11-22T13:38:21.249Z,7.90
2022-11-22T13:40:51.512Z,7.90
2022-11-22T13:43:22.241Z,7.90
2022-11-22T13:45:51.433Z,8.00
2022-11-22T13:48:40.132Z,8.00
2022-11-22T13:51:14.251Z,8.00
2022-11-22T13:53:43.790Z,8.10
2022-11-22T13:56:16.557Z,8.10
2022-11-22T13:59:12.267Z,8.10
2022-11-22T14:01:39.417Z,8.10
2022-11-22T14:04:21.101Z,8.10
2022-11-22T14:06:48.571Z,8.20
2022-11-22T14:09:50.733Z,8.30
2022-11-22T14:12:26.483Z,8.20
2022-11-22T14:14:56.212Z,8.30
2022-11-22T14:17:35.669Z,8.30
2022-11-22T14:20:35.279Z,8.40
2022-11-22T14:23:33.660Z,8.30
2022-11-22T14:26:28.561Z,8.40
2022-11-22T14:29:07.403Z,8.40
2022-11-22T14:31:35.148Z,8.40
2022-11-22T14:34:23.377Z,8.40
2022-11-22T14:37:15.434Z,8.40
2022-11-22T14:39:45.212Z,8.40
2022-11-22T14:42:48.944Z,8.40
2022-11-22T14:45:21.523Z,8.50
2022-11-22T14:47:52.730Z,8.50
2022-11-22T14:50:24.781Z,8.40
2022-11-22T14:52:53.050Z,8.50
2022-11-22T14:55:40.060Z,8.50
2022-11-22T14:58:08.507Z,8.50
2022-11-22T15:00:41.775Z,8.50
2022-11-22T15:03:39.386Z,8.60
2022-11-22T15:09:19.464Z,8.60
2022-11-22T15:09:48.985Z,8.60
2022-11-22T15:12:31.164Z,8.70
2022-11-22T15:57:37.329Z,8.30
2022-11-22T16:00:27.793Z,8.30
2022-11-22T16:03:01.740Z,8.30
2022-11-22T16:06:07.518Z,8.20
2022-11-22T16:08:21.039Z,8.20
2022-11-22T16:10:51.464Z,8.20
2022-11-22T16:13:21.065Z,8.20
2022-11-22T16:16:10.386Z,8.20
2022-11-22T16:18:38.126Z,8.30
2022-11-22T16:21:14.037Z,8.30
2022-11-22T16:23:42.235Z,8.30
2022-11-22T16:26:21.875Z,8.30
2022-11-22T16:28:53.228Z,8.20
2022-11-22T16:31:25.769Z,8.30
2022-11-22T16:33:53.862Z,8.30
2022-11-22T16:36:21.930Z,8.30
2022-11-22T16:38:48.697Z,8.30
2022-11-22T16:41:19.745Z,8.30
2022-11-22T16:43:49.443Z,8.30
2022-11-22T16:46:16.578Z,8.30
2022-11-22T16:48:44.657Z,8.30
2022-11-22T16:51:16.196Z,8.30
2022-11-22T16:53:48.489Z,8.30
2022-11-22T16:56:19.582Z,8.30
2022-11-22T16:58:47.567Z,8.30
2022-11-22T17:01:16.352Z,8.30
2022-11-22T17:03:45.008Z,8.30
2022-11-22T17:06:20.193Z,8.30
2022-11-22T17:08:49.093Z,8.30
2022-11-22T17:11:18.469Z,8.30
2022-11-22T17:13:45.689Z,8.30
2022-11-22T17:16:12.942Z,8.30
2022-11-22T17:18:40.305Z,8.30
2022-11-22T17:21:16.199Z,8.30
2022-11-22T17:23:43.138Z,8.30
2022-11-22T17:26:10.475Z,8.40
2022-11-22T17:28:37.219Z,8.40
2022-11-22T17:31:10.842Z,8.40
2022-11-22T17:33:37.644Z,8.40
2022-11-22T17:36:04.638Z,8.40
2022-11-22T17:38:31.486Z,8.40
2022-11-22T17:40:59.991Z,8.40
2022-11-22T17:43:27.123Z,8.40
2022-11-22T17:45:53.932Z,8.40
2022-11-22T17:48:20.758Z,8.40
2022-11-22T17:50:47.587Z,8.40
2022-11-22T17:53:14.331Z,8.40
2022-11-22T17:56:09.057Z,8.40
2022-11-22T17:58:28.466Z,8.40
2022-11-22T18:01:16.902Z,8.40
2022-11-22T18:03:43.936Z,8.40
2022-11-22T18:06:12.093Z,8.50
2022-11-22T18:08:45.239Z,8.50
2022-11-22T18:11:14.240Z,8.50
2022-11-22T18:13:41.225Z,8.50
2022-11-22T18:16:12.167Z,8.50
2022-11-22T18:21:29.382Z,8.50
2022-11-22T18:23:57.815Z,8.50
2022-11-22T18:26:39.448Z,8.50
2022-11-22T18:31:54.809Z,8.50
2022-11-22T18:34:22.946Z,8.50
2022-11-22T18:36:55.180Z,8.50
2022-11-22T18:39:25.300Z,8.40
2022-11-22T18:41:52.142Z,8.40
2022-11-22T18:44:19.155Z,8.40
2022-11-22T18:46:46.906Z,8.40
2022-11-22T18:49:14.049Z,8.40
2022-11-22T18:51:41.159Z,8.40
2022-11-22T18:54:10.004Z,8.40
2022-11-22T18:56:40.646Z,8.40
2022-11-22T18:59:10.119Z,8.40
2022-11-22T19:01:37.070Z,8.30
2022-11-22T19:04:04.822Z,8.30
2022-11-22T19:06:31.973Z,8.30
2022-11-22T19:08:58.801Z,8.30
2022-11-22T19:11:25.883Z,8.30
2022-11-22T19:13:53.128Z,8.30
2022-11-22T19:16:22.137Z,8.30
2022-11-22T19:18:49.546Z,8.30
2022-11-22T19:21:19.387Z,8.30
2022-11-22T19:23:47.204Z,8.30
2022-11-22T19:26:16.734Z,8.30
2022-11-22T19:28:43.616Z,8.30
2022-11-22T19:31:12.922Z,8.30
2022-11-22T19:33:40.179Z,8.30
2022-11-22T19:36:11.461Z,8.30
2022-11-22T19:38:38.261Z,8.30
2022-11-22T19:41:12.684Z,8.30
2022-11-22T19:43:39.725Z,8.30
2022-11-22T19:46:06.928Z,8.30
2022-11-22T19:48:35.386Z,8.30
2022-11-22T19:51:08.926Z,8.30
2022-11-22T19:53:35.891Z,8.30
2022-11-22T19:56:05.467Z,8.30
2022-11-22T19:58:32.676Z,8.30
2022-11-22T20:01:18.556Z,8.30
2022-11-22T20:03:45.748Z,8.30
2022-11-22T20:06:13.878Z,8.30
2022-11-22T20:08:41.277Z,8.30
2022-11-22T20:11:16.425Z,8.30
2022-11-22T20:13:45.747Z,8.30
2022-11-22T20:16:12.464Z,8.30
2022-11-22T20:18:39.431Z,8.30
2022-11-22T20:21:08.045Z,8.30
2022-11-22T20:23:35.315Z,8.30
2022-11-22T20:26:12.934Z,8.30
2022-11-22T20:28:40.842Z,8.30
2022-11-22T20:31:12.081Z,8.30
2022-11-22T20:33:41.420Z,8.30
2022-11-22T20:36:13.385Z,8.40
2022-11-22T20:38:41.761Z,8.40
2022-11-22T20:41:09.922Z,8.40
2022-11-22T20:43:37.396Z,8.40
2022-11-22T20:46:15.721Z,8.40
2022-11-22T20:48:44.133Z,8.50
2022-11-22T20:51:17.007Z,8.40
2022-11-22T20:53:43.983Z,8.50
2022-11-22T20:56:12.117Z,8.50
2022-11-22T20:58:39.198Z,8.40
2022-11-22T21:01:07.991Z,8.40
2022-11-22T21:03:35.217Z,8.50
2022-11-22T21:06:02.648Z,8.50
2022-11-22T21:08:29.765Z,8.40
2022-11-22T21:11:07.112Z,8.40
2022-11-22T21:13:34.387Z,8.50
2022-11-22T21:16:21.181Z,8.50
2022-11-22T21:18:53.428Z,8.50
2022-11-22T21:21:23.347Z,8.50
2022-11-22T21:23:52.380Z,8.50
2022-11-22T21:26:19.482Z,8.50
2022-11-22T21:28:46.508Z,8.50
2022-11-22T21:31:13.638Z,8.50
2022-11-22T21:33:40.621Z,8.50
2022-11-22T21:36:08.410Z,8.50
2022-11-22T21:38:35.300Z,8.50
2022-11-22T21:41:24.379Z,8.50
2022-11-22T21:43:54.012Z,8.50
2022-11-22T21:46:21.000Z,8.50
2022-11-22T21:48:51.792Z,8.50
2022-11-22T21:51:18.748Z,8.50
2022-11-22T21:53:45.664Z,8.50
2022-11-22T21:56:12.526Z,8.50
2022-11-22T21:58:39.282Z,8.50
2022-11-22T22:01:10.887Z,8.50
2022-11-22T22:03:40.958Z,8.50
2022-11-22T22:06:07.839Z,8.50
2022-11-22T22:08:35.557Z,8.50
2022-11-22T22:11:02.540Z,8.50
2022-11-22T22:13:30.827Z,8.50
2022-11-22T22:15:58.792Z,8.50
2022-11-22T22:18:36.648Z,8.50
2022-11-22T22:21:06.231Z,8.50
2022-11-22T22:23:38.842Z,8.50
2022-11-22T22:26:07.815Z,8.50
2022-11-22T22:28:36.343Z,8.50
2022-11-22T22:31:06.117Z,8.50
2022-11-22T22:33:33.380Z,8.50
2022-11-22T22:36:00.402Z,8.50
2022-11-22T22:38:27.428Z,8.50
2022-11-22T22:40:59.351Z,8.50
2022-11-22T22:43:30.395Z,8.50
2022-11-22T22:46:09.514Z,8.50
2022-11-22T22:48:36.340Z,8.50
2022-11-22T22:51:08.276Z,8.50
2022-11-22T22:53:35.195Z,8.50
2022-11-22T22:56:02.113Z,8.50
2022-11-22T22:58:28.935Z,8.50
2022-11-22T23:00:55.650Z,8.50
2022-11-22T23:03:22.438Z,8.50
2022-11-22T23:05:49.474Z,8.50
2022-11-22T23:08:16.255Z,8.40
2022-11-22T23:10:44.290Z,8.40
2022-11-22T23:13:11.071Z,8.40
2022-11-22T23:15:57.735Z,8.40
2022-11-22T23:18:25.261Z,8.40
2022-11-22T23:20:52.117Z,8.40
2022-11-22T23:23:18.856Z,8.40
2022-11-22T23:25:45.778Z,8.40
2022-11-22T23:28:12.518Z,8.40
2022-11-22T23:30:39.300Z,8.40
2022-11-22T23:33:06.065Z,8.40
2022-11-22T23:35:36.176Z,8.40
2022-11-22T23:38:03.193Z,8.40
2022-11-22T23:40:31.358Z,8.40
2022-11-22T23:42:58.547Z,8.40
2022-11-22T23:45:25.468Z,8.40
2022-11-22T23:47:53.869Z,8.30
2022-11-22T23:50:20.656Z,8.40
2022-11-22T23:52:47.410Z,8.40
2022-11-22T23:55:14.423Z,8.40
2022-11-22T23:57:41.161Z,8.40
